sensor_id;sensor_type;location;lat;lon;timestamp;pressure;altitude;pressure_sealevel;temperature;humidity
48810;BME280;40070;47.322;18.784;2023-08-31T00:01:37;995.91;;;17.61;74.27
48810;BME280;40070;47.322;18.784;2023-08-31T00:03:38;995.95;;;17.57;74.34
48810;BME280;40070;47.322;18.784;2023-08-31T00:05:42;995.92;;;17.46;74.56
48810;BME280;40070;47.322;18.784;2023-08-31T00:07:43;995.87;;;17.64;74.02
48810;BME280;40070;47.322;18.784;2023-08-31T00:09:44;995.87;;;17.65;74.27
48810;BME280;40070;47.322;18.784;2023-08-31T00:11:45;995.89;;;17.64;74.02
48810;BME280;40070;47.322;18.784;2023-08-31T00:13:46;995.88;;;17.64;73.71
48810;BME280;40070;47.322;18.784;2023-08-31T00:15:47;995.86;;;17.63;73.82
48810;BME280;40070;47.322;18.784;2023-08-31T00:17:48;995.88;;;17.74;73.64
48810;BME280;40070;47.322;18.784;2023-08-31T00:19:49;995.87;;;17.69;73.82
48810;BME280;40070;47.322;18.784;2023-08-31T00:21:50;995.88;;;17.56;74.23
48810;BME280;40070;47.322;18.784;2023-08-31T00:23:51;995.95;;;17.77;73.39
48810;BME280;40070;47.322;18.784;2023-08-31T00:25:52;995.98;;;17.62;73.90
48810;BME280;40070;47.322;18.784;2023-08-31T00:27:53;995.93;;;17.83;73.09
48810;BME280;40070;47.322;18.784;2023-08-31T00:29:54;995.99;;;17.87;73.20
48810;BME280;40070;47.322;18.784;2023-08-31T00:31:55;995.98;;;18.03;72.48
48810;BME280;40070;47.322;18.784;2023-08-31T00:33:56;996.01;;;18.02;72.42
48810;BME280;40070;47.322;18.784;2023-08-31T00:36:00;996.03;;;18.09;72.22
48810;BME280;40070;47.322;18.784;2023-08-31T00:38:01;996.00;;;17.99;71.96
48810;BME280;40070;47.322;18.784;2023-08-31T00:40:02;996.06;;;18.06;71.91
48810;BME280;40070;47.322;18.784;2023-08-31T00:42:03;996.05;;;18.09;71.82
48810;BME280;40070;47.322;18.784;2023-08-31T00:44:04;996.05;;;18.06;71.67
48810;BME280;40070;47.322;18.784;2023-08-31T00:46:06;996.09;;;17.94;72.28
48810;BME280;40070;47.322;18.784;2023-08-31T00:48:07;996.15;;;17.83;73.02
48810;BME280;40070;47.322;18.784;2023-08-31T00:50:08;996.13;;;17.80;73.09
48810;BME280;40070;47.322;18.784;2023-08-31T00:52:09;996.14;;;17.88;73.23
48810;BME280;40070;47.322;18.784;2023-08-31T00:54:10;996.13;;;17.92;72.66
48810;BME280;40070;47.322;18.784;2023-08-31T00:56:11;996.14;;;17.88;72.70
48810;BME280;40070;47.322;18.784;2023-08-31T00:58:12;996.12;;;17.75;72.95
48810;BME280;40070;47.322;18.784;2023-08-31T01:00:13;996.15;;;17.79;72.92
48810;BME280;40070;47.322;18.784;2023-08-31T01:02:16;996.14;;;17.95;72.35
48810;BME280;40070;47.322;18.784;2023-08-31T01:04:21;996.18;;;18.05;72.16
48810;BME280;40070;47.322;18.784;2023-08-31T01:06:36;996.20;;;18.01;72.12
48810;BME280;40070;47.322;18.784;2023-08-31T01:11:00;996.22;;;17.81;72.99
48810;BME280;40070;47.322;18.784;2023-08-31T01:13:11;996.19;;;18.05;72.41
48810;BME280;40070;47.322;18.784;2023-08-31T01:15:13;996.19;;;17.98;72.31
48810;BME280;40070;47.322;18.784;2023-08-31T01:17:15;996.22;;;17.84;72.86
48810;BME280;40070;47.322;18.784;2023-08-31T01:19:30;996.20;;;17.80;73.01
48810;BME280;40070;47.322;18.784;2023-08-31T01:21:47;996.22;;;17.79;73.37
48810;BME280;40070;47.322;18.784;2023-08-31T01:23:55;996.14;;;17.62;73.84
48810;BME280;40070;47.322;18.784;2023-08-31T01:25:56;996.18;;;17.45;74.93
48810;BME280;40070;47.322;18.784;2023-08-31T01:27:58;996.18;;;17.51;74.68
48810;BME280;40070;47.322;18.784;2023-08-31T01:30:00;996.19;;;17.48;74.73
48810;BME280;40070;47.322;18.784;2023-08-31T01:32:04;996.18;;;17.43;75.13
48810;BME280;40070;47.322;18.784;2023-08-31T01:34:05;996.18;;;17.41;75.16
48810;BME280;40070;47.322;18.784;2023-08-31T01:36:28;996.15;;;17.36;75.38
48810;BME280;40070;47.322;18.784;2023-08-31T01:38:21;996.18;;;17.36;75.44
48810;BME280;40070;47.322;18.784;2023-08-31T01:42:44;996.19;;;17.36;75.43
48810;BME280;40070;47.322;18.784;2023-08-31T01:44:47;996.21;;;17.23;76.24
48810;BME280;40070;47.322;18.784;2023-08-31T01:46:51;996.20;;;17.43;75.46
48810;BME280;40070;47.322;18.784;2023-08-31T01:48:52;996.23;;;17.47;75.12
48810;BME280;40070;47.322;18.784;2023-08-31T01:50:53;996.24;;;17.53;75.00
48810;BME280;40070;47.322;18.784;2023-08-31T01:52:54;996.24;;;17.77;74.04
48810;BME280;40070;47.322;18.784;2023-08-31T01:54:55;996.26;;;17.71;74.42
48810;BME280;40070;47.322;18.784;2023-08-31T01:56:56;996.25;;;17.79;74.32
48810;BME280;40070;47.322;18.784;2023-08-31T01:58:57;996.24;;;17.81;74.01
48810;BME280;40070;47.322;18.784;2023-08-31T02:00:58;996.27;;;17.73;74.15
48810;BME280;40070;47.322;18.784;2023-08-31T02:02:59;996.28;;;17.69;74.09
48810;BME280;40070;47.322;18.784;2023-08-31T02:05:01;996.28;;;17.92;73.24
48810;BME280;40070;47.322;18.784;2023-08-31T02:07:02;996.30;;;17.98;72.81
48810;BME280;40070;47.322;18.784;2023-08-31T02:09:03;996.31;;;17.93;72.76
48810;BME280;40070;47.322;18.784;2023-08-31T02:11:04;996.35;;;17.87;73.30
48810;BME280;40070;47.322;18.784;2023-08-31T02:13:05;996.39;;;18.03;72.77
48810;BME280;40070;47.322;18.784;2023-08-31T02:15:06;996.36;;;17.70;73.40
48810;BME280;40070;47.322;18.784;2023-08-31T02:17:07;996.38;;;17.68;73.80
48810;BME280;40070;47.322;18.784;2023-08-31T02:19:08;996.44;;;17.68;73.84
48810;BME280;40070;47.322;18.784;2023-08-31T02:21:09;996.44;;;17.79;73.40
48810;BME280;40070;47.322;18.784;2023-08-31T02:23:10;996.41;;;17.72;73.78
48810;BME280;40070;47.322;18.784;2023-08-31T02:25:11;996.45;;;17.59;74.48
48810;BME280;40070;47.322;18.784;2023-08-31T02:27:13;996.41;;;17.66;74.34
48810;BME280;40070;47.322;18.784;2023-08-31T02:29:14;996.44;;;17.62;74.44
48810;BME280;40070;47.322;18.784;2023-08-31T02:31:16;996.45;;;17.82;73.35
48810;BME280;40070;47.322;18.784;2023-08-31T02:33:17;996.47;;;17.93;72.72
48810;BME280;40070;47.322;18.784;2023-08-31T02:35:18;996.46;;;17.91;72.62
48810;BME280;40070;47.322;18.784;2023-08-31T02:37:19;996.47;;;17.99;72.55
48810;BME280;40070;47.322;18.784;2023-08-31T02:39:20;996.43;;;17.83;73.13
48810;BME280;40070;47.322;18.784;2023-08-31T02:41:21;996.44;;;17.87;72.93
48810;BME280;40070;47.322;18.784;2023-08-31T02:43:22;996.45;;;17.66;73.74
48810;BME280;40070;47.322;18.784;2023-08-31T02:45:23;996.42;;;17.61;73.76
48810;BME280;40070;47.322;18.784;2023-08-31T02:47:24;996.39;;;17.59;74.21
48810;BME280;40070;47.322;18.784;2023-08-31T02:49:25;996.38;;;17.49;74.77
48810;BME280;40070;47.322;18.784;2023-08-31T02:51:26;996.36;;;17.59;74.44
48810;BME280;40070;47.322;18.784;2023-08-31T02:53:27;996.33;;;17.26;75.29
48810;BME280;40070;47.322;18.784;2023-08-31T02:55:28;996.33;;;17.34;75.25
48810;BME280;40070;47.322;18.784;2023-08-31T02:57:29;996.36;;;17.19;76.01
48810;BME280;40070;47.322;18.784;2023-08-31T02:59:30;996.37;;;17.31;75.60
48810;BME280;40070;47.322;18.784;2023-08-31T03:01:31;996.40;;;17.31;75.71
48810;BME280;40070;47.322;18.784;2023-08-31T03:03:32;996.39;;;17.34;75.79
48810;BME280;40070;47.322;18.784;2023-08-31T03:05:33;996.41;;;17.33;76.05
48810;BME280;40070;47.322;18.784;2023-08-31T03:07:34;996.40;;;17.33;76.04
48810;BME280;40070;47.322;18.784;2023-08-31T03:09:35;996.40;;;17.20;76.73
48810;BME280;40070;47.322;18.784;2023-08-31T03:11:36;996.38;;;17.41;75.79
48810;BME280;40070;47.322;18.784;2023-08-31T03:13:37;996.37;;;17.47;75.12
48810;BME280;40070;47.322;18.784;2023-08-31T03:15:38;996.39;;;17.21;76.03
48810;BME280;40070;47.322;18.784;2023-08-31T03:17:39;996.39;;;17.29;75.21
48810;BME280;40070;47.322;18.784;2023-08-31T03:19:41;996.40;;;17.44;74.30
48810;BME280;40070;47.322;18.784;2023-08-31T03:21:42;996.45;;;17.38;74.29
48810;BME280;40070;47.322;18.784;2023-08-31T03:23:43;996.49;;;17.23;74.65
48810;BME280;40070;47.322;18.784;2023-08-31T03:25:43;996.52;;;17.26;74.90
48810;BME280;40070;47.322;18.784;2023-08-31T03:27:44;996.48;;;17.30;74.48
48810;BME280;40070;47.322;18.784;2023-08-31T03:29:45;996.54;;;17.19;74.79
48810;BME280;40070;47.322;18.784;2023-08-31T03:31:46;996.57;;;17.27;74.82
48810;BME280;40070;47.322;18.784;2023-08-31T03:33:47;996.54;;;17.35;74.49
48810;BME280;40070;47.322;18.784;2023-08-31T03:35:48;996.52;;;17.40;74.24
48810;BME280;40070;47.322;18.784;2023-08-31T03:37:49;996.58;;;17.55;73.96
48810;BME280;40070;47.322;18.784;2023-08-31T03:39:50;996.56;;;17.41;74.33
48810;BME280;40070;47.322;18.784;2023-08-31T03:41:51;996.57;;;17.26;74.83
48810;BME280;40070;47.322;18.784;2023-08-31T03:43:52;996.58;;;17.21;74.82
48810;BME280;40070;47.322;18.784;2023-08-31T03:45:54;996.61;;;16.93;75.98
48810;BME280;40070;47.322;18.784;2023-08-31T03:47:54;996.59;;;16.84;76.22
48810;BME280;40070;47.322;18.784;2023-08-31T03:49:55;996.57;;;16.86;76.48
48810;BME280;40070;47.322;18.784;2023-08-31T03:51:57;996.54;;;17.01;75.82
48810;BME280;40070;47.322;18.784;2023-08-31T03:53:58;996.55;;;16.84;76.18
48810;BME280;40070;47.322;18.784;2023-08-31T03:55:59;996.54;;;16.87;76.30
48810;BME280;40070;47.322;18.784;2023-08-31T03:57:59;996.58;;;17.02;75.79
48810;BME280;40070;47.322;18.784;2023-08-31T04:00:00;996.60;;;16.98;75.74
48810;BME280;40070;47.322;18.784;2023-08-31T04:02:01;996.69;;;17.03;75.47
48810;BME280;40070;47.322;18.784;2023-08-31T04:04:02;996.72;;;16.78;76.56
48810;BME280;40070;47.322;18.784;2023-08-31T04:06:03;996.71;;;16.78;76.66
48810;BME280;40070;47.322;18.784;2023-08-31T04:08:05;996.72;;;16.73;77.15
48810;BME280;40070;47.322;18.784;2023-08-31T04:10:06;996.69;;;16.61;77.44
48810;BME280;40070;47.322;18.784;2023-08-31T04:12:07;996.70;;;16.64;77.37
48810;BME280;40070;47.322;18.784;2023-08-31T04:14:08;996.73;;;16.52;78.01
48810;BME280;40070;47.322;18.784;2023-08-31T04:16:09;996.73;;;16.68;77.71
48810;BME280;40070;47.322;18.784;2023-08-31T04:18:10;996.77;;;16.57;77.94
48810;BME280;40070;47.322;18.784;2023-08-31T04:20:11;996.79;;;16.46;78.34
48810;BME280;40070;47.322;18.784;2023-08-31T04:22:12;996.81;;;16.46;78.25
48810;BME280;40070;47.322;18.784;2023-08-31T04:24:13;996.82;;;16.22;79.17
48810;BME280;40070;47.322;18.784;2023-08-31T04:26:14;996.83;;;16.36;78.67
48810;BME280;40070;47.322;18.784;2023-08-31T04:28:15;996.83;;;16.41;78.41
48810;BME280;40070;47.322;18.784;2023-08-31T04:30:16;996.86;;;16.39;78.55
48810;BME280;40070;47.322;18.784;2023-08-31T04:32:17;996.89;;;16.48;78.17
48810;BME280;40070;47.322;18.784;2023-08-31T04:34:18;996.90;;;16.64;77.44
48810;BME280;40070;47.322;18.784;2023-08-31T04:36:22;996.93;;;16.69;77.11
48810;BME280;40070;47.322;18.784;2023-08-31T04:38:23;997.00;;;16.73;76.82
48810;BME280;40070;47.322;18.784;2023-08-31T04:40:24;997.05;;;16.76;76.71
48810;BME280;40070;47.322;18.784;2023-08-31T04:42:25;997.08;;;16.74;76.93
48810;BME280;40070;47.322;18.784;2023-08-31T04:44:26;997.10;;;16.72;76.76
48810;BME280;40070;47.322;18.784;2023-08-31T04:46:27;997.07;;;16.69;76.98
48810;BME280;40070;47.322;18.784;2023-08-31T04:48:28;997.08;;;16.77;76.77
48810;BME280;40070;47.322;18.784;2023-08-31T04:50:28;997.14;;;16.70;76.83
48810;BME280;40070;47.322;18.784;2023-08-31T04:52:30;997.18;;;16.70;76.86
48810;BME280;40070;47.322;18.784;2023-08-31T04:54:30;997.18;;;16.67;76.84
48810;BME280;40070;47.322;18.784;2023-08-31T04:56:32;997.19;;;16.57;77.30
48810;BME280;40070;47.322;18.784;2023-08-31T04:58:33;997.27;;;16.78;76.71
48810;BME280;40070;47.322;18.784;2023-08-31T05:00:34;997.31;;;16.91;76.12
48810;BME280;40070;47.322;18.784;2023-08-31T05:02:35;997.35;;;16.86;76.32
48810;BME280;40070;47.322;18.784;2023-08-31T05:04:36;997.35;;;16.95;76.08
48810;BME280;40070;47.322;18.784;2023-08-31T05:06:37;997.38;;;17.14;75.09
48810;BME280;40070;47.322;18.784;2023-08-31T05:08:38;997.45;;;17.36;74.53
48810;BME280;40070;47.322;18.784;2023-08-31T05:10:38;997.50;;;17.35;74.35
48810;BME280;40070;47.322;18.784;2023-08-31T05:12:39;997.50;;;17.36;74.19
48810;BME280;40070;47.322;18.784;2023-08-31T05:14:40;997.52;;;17.43;73.70
48810;BME280;40070;47.322;18.784;2023-08-31T05:16:42;997.53;;;17.54;73.47
48810;BME280;40070;47.322;18.784;2023-08-31T05:18:43;997.55;;;17.50;73.72
48810;BME280;40070;47.322;18.784;2023-08-31T05:20:44;997.62;;;17.58;73.72
48810;BME280;40070;47.322;18.784;2023-08-31T05:22:45;997.62;;;17.67;73.88
48810;BME280;40070;47.322;18.784;2023-08-31T05:24:46;997.67;;;17.72;73.76
48810;BME280;40070;47.322;18.784;2023-08-31T05:26:48;997.71;;;17.79;74.01
48810;BME280;40070;47.322;18.784;2023-08-31T05:28:49;997.71;;;17.90;74.00
48810;BME280;40070;47.322;18.784;2023-08-31T05:30:51;997.70;;;18.00;73.63
48810;BME280;40070;47.322;18.784;2023-08-31T05:32:52;997.68;;;18.13;72.70
48810;BME280;40070;47.322;18.784;2023-08-31T05:34:53;997.76;;;18.34;72.22
48810;BME280;40070;47.322;18.784;2023-08-31T05:36:54;997.79;;;18.33;71.26
48810;BME280;40070;47.322;18.784;2023-08-31T05:38:55;997.84;;;18.35;71.83
48810;BME280;40070;47.322;18.784;2023-08-31T05:41:05;997.89;;;18.42;71.89
48810;BME280;40070;47.322;18.784;2023-08-31T05:43:06;997.94;;;18.42;72.07
48810;BME280;40070;47.322;18.784;2023-08-31T05:45:08;997.94;;;18.33;72.32
48810;BME280;40070;47.322;18.784;2023-08-31T05:47:09;997.94;;;18.48;70.99
48810;BME280;40070;47.322;18.784;2023-08-31T05:49:10;997.93;;;18.46;71.50
48810;BME280;40070;47.322;18.784;2023-08-31T05:51:11;997.92;;;18.60;71.38
48810;BME280;40070;47.322;18.784;2023-08-31T05:53:12;997.97;;;18.60;70.68
48810;BME280;40070;47.322;18.784;2023-08-31T05:55:13;997.93;;;18.74;70.35
48810;BME280;40070;47.322;18.784;2023-08-31T05:57:18;997.97;;;18.76;70.81
48810;BME280;40070;47.322;18.784;2023-08-31T05:59:19;998.01;;;18.71;71.19
48810;BME280;40070;47.322;18.784;2023-08-31T06:01:20;998.06;;;18.78;70.67
48810;BME280;40070;47.322;18.784;2023-08-31T06:03:21;998.08;;;18.75;70.78
48810;BME280;40070;47.322;18.784;2023-08-31T06:05:22;998.10;;;18.87;70.22
48810;BME280;40070;47.322;18.784;2023-08-31T06:07:23;998.13;;;19.02;69.93
48810;BME280;40070;47.322;18.784;2023-08-31T06:09:24;998.13;;;19.23;69.48
48810;BME280;40070;47.322;18.784;2023-08-31T06:11:47;998.11;;;19.18;68.98
48810;BME280;40070;47.322;18.784;2023-08-31T06:13:49;998.12;;;19.35;68.39
48810;BME280;40070;47.322;18.784;2023-08-31T06:15:50;998.12;;;19.30;68.30
48810;BME280;40070;47.322;18.784;2023-08-31T06:17:51;998.13;;;19.42;68.30
48810;BME280;40070;47.322;18.784;2023-08-31T06:19:52;998.16;;;19.42;67.91
48810;BME280;40070;47.322;18.784;2023-08-31T06:21:53;998.18;;;19.60;67.68
48810;BME280;40070;47.322;18.784;2023-08-31T06:23:54;998.20;;;19.67;68.66
48810;BME280;40070;47.322;18.784;2023-08-31T06:25:56;998.22;;;19.72;67.73
48810;BME280;40070;47.322;18.784;2023-08-31T06:27:57;998.19;;;19.62;67.27
48810;BME280;40070;47.322;18.784;2023-08-31T06:29:58;998.27;;;19.69;67.93
48810;BME280;40070;47.322;18.784;2023-08-31T06:32:05;998.26;;;20.00;67.25
48810;BME280;40070;47.322;18.784;2023-08-31T06:34:06;998.30;;;19.77;67.19
48810;BME280;40070;47.322;18.784;2023-08-31T06:36:09;998.28;;;19.54;68.05
48810;BME280;40070;47.322;18.784;2023-08-31T06:38:09;998.24;;;19.57;67.93
48810;BME280;40070;47.322;18.784;2023-08-31T06:40:11;998.27;;;19.53;67.58
48810;BME280;40070;47.322;18.784;2023-08-31T06:42:12;998.24;;;19.83;66.98
48810;BME280;40070;47.322;18.784;2023-08-31T06:44:13;998.26;;;19.84;66.58
48810;BME280;40070;47.322;18.784;2023-08-31T06:46:14;998.27;;;19.78;67.17
48810;BME280;40070;47.322;18.784;2023-08-31T06:48:15;998.30;;;19.57;65.65
48810;BME280;40070;47.322;18.784;2023-08-31T06:50:16;998.33;;;19.71;65.50
48810;BME280;40070;47.322;18.784;2023-08-31T06:52:17;998.37;;;19.67;65.28
48810;BME280;40070;47.322;18.784;2023-08-31T06:54:18;998.36;;;19.60;65.21
48810;BME280;40070;47.322;18.784;2023-08-31T06:56:19;998.46;;;19.60;66.08
48810;BME280;40070;47.322;18.784;2023-08-31T06:58:20;998.44;;;19.79;65.93
48810;BME280;40070;47.322;18.784;2023-08-31T07:00:21;998.45;;;19.59;66.08
48810;BME280;40070;47.322;18.784;2023-08-31T07:02:22;998.54;;;19.70;66.22
48810;BME280;40070;47.322;18.784;2023-08-31T07:04:23;998.53;;;19.50;66.88
48810;BME280;40070;47.322;18.784;2023-08-31T07:06:24;998.53;;;19.33;67.08
48810;BME280;40070;47.322;18.784;2023-08-31T07:08:25;998.57;;;19.67;66.36
48810;BME280;40070;47.322;18.784;2023-08-31T07:10:26;998.59;;;19.67;65.86
48810;BME280;40070;47.322;18.784;2023-08-31T07:12:27;998.60;;;19.86;66.08
48810;BME280;40070;47.322;18.784;2023-08-31T07:14:28;998.64;;;20.12;65.43
48810;BME280;40070;47.322;18.784;2023-08-31T07:16:29;998.70;;;20.31;65.03
48810;BME280;40070;47.322;18.784;2023-08-31T07:18:30;998.67;;;20.57;64.05
48810;BME280;40070;47.322;18.784;2023-08-31T07:20:31;998.64;;;20.72;63.45
48810;BME280;40070;47.322;18.784;2023-08-31T07:22:35;998.67;;;20.63;61.99
48810;BME280;40070;47.322;18.784;2023-08-31T07:24:36;998.75;;;20.68;62.55
48810;BME280;40070;47.322;18.784;2023-08-31T07:26:37;998.77;;;20.92;61.91
48810;BME280;40070;47.322;18.784;2023-08-31T07:28:38;998.80;;;21.01;62.13
48810;BME280;40070;47.322;18.784;2023-08-31T07:30:39;998.81;;;20.89;60.49
48810;BME280;40070;47.322;18.784;2023-08-31T07:32:40;998.80;;;20.84;60.98
48810;BME280;40070;47.322;18.784;2023-08-31T07:34:41;998.80;;;21.14;61.05
48810;BME280;40070;47.322;18.784;2023-08-31T07:36:42;998.80;;;21.37;60.43
48810;BME280;40070;47.322;18.784;2023-08-31T07:38:43;998.84;;;21.45;61.27
48810;BME280;40070;47.322;18.784;2023-08-31T07:40:44;998.80;;;21.62;60.57
48810;BME280;40070;47.322;18.784;2023-08-31T07:42:45;998.83;;;21.70;59.49
48810;BME280;40070;47.322;18.784;2023-08-31T07:44:46;998.83;;;21.86;57.75
48810;BME280;40070;47.322;18.784;2023-08-31T07:46:47;998.81;;;21.79;57.79
48810;BME280;40070;47.322;18.784;2023-08-31T07:48:47;998.82;;;21.49;58.75
48810;BME280;40070;47.322;18.784;2023-08-31T07:50:48;998.82;;;21.43;59.42
48810;BME280;40070;47.322;18.784;2023-08-31T07:52:49;998.85;;;21.61;59.31
48810;BME280;40070;47.322;18.784;2023-08-31T07:54:50;998.83;;;21.84;58.24
48810;BME280;40070;47.322;18.784;2023-08-31T07:56:51;998.84;;;21.93;57.77
48810;BME280;40070;47.322;18.784;2023-08-31T07:58:52;998.87;;;22.05;58.43
48810;BME280;40070;47.322;18.784;2023-08-31T08:00:54;998.93;;;21.99;58.02
48810;BME280;40070;47.322;18.784;2023-08-31T08:02:55;998.95;;;22.22;58.37
48810;BME280;40070;47.322;18.784;2023-08-31T08:04:57;999.02;;;21.89;57.90
48810;BME280;40070;47.322;18.784;2023-08-31T08:06:58;999.00;;;21.94;57.65
48810;BME280;40070;47.322;18.784;2023-08-31T08:08:59;998.99;;;21.74;57.67
48810;BME280;40070;47.322;18.784;2023-08-31T08:11:00;999.07;;;21.88;58.13
48810;BME280;40070;47.322;18.784;2023-08-31T08:13:01;999.05;;;21.94;56.97
48810;BME280;40070;47.322;18.784;2023-08-31T08:15:03;999.11;;;22.31;56.19
48810;BME280;40070;47.322;18.784;2023-08-31T08:17:04;999.13;;;22.10;59.25
48810;BME280;40070;47.322;18.784;2023-08-31T08:19:05;999.09;;;22.07;56.64
48810;BME280;40070;47.322;18.784;2023-08-31T08:21:06;999.10;;;21.99;56.85
48810;BME280;40070;47.322;18.784;2023-08-31T08:23:08;999.06;;;22.41;56.51
48810;BME280;40070;47.322;18.784;2023-08-31T08:25:09;999.04;;;22.36;56.18
48810;BME280;40070;47.322;18.784;2023-08-31T08:27:10;999.03;;;22.82;55.42
48810;BME280;40070;47.322;18.784;2023-08-31T08:29:11;998.94;;;23.14;55.84
48810;BME280;40070;47.322;18.784;2023-08-31T08:31:12;998.94;;;23.51;54.39
48810;BME280;40070;47.322;18.784;2023-08-31T08:33:13;999.01;;;23.64;54.42
48810;BME280;40070;47.322;18.784;2023-08-31T08:35:14;999.00;;;23.95;53.46
48810;BME280;40070;47.322;18.784;2023-08-31T08:37:15;999.04;;;24.10;54.18
48810;BME280;40070;47.322;18.784;2023-08-31T08:39:16;999.08;;;23.87;50.63
48810;BME280;40070;47.322;18.784;2023-08-31T08:41:18;999.12;;;23.43;50.21
48810;BME280;40070;47.322;18.784;2023-08-31T08:43:24;999.08;;;23.32;49.94
48810;BME280;40070;47.322;18.784;2023-08-31T08:45:25;999.07;;;23.49;50.58
48810;BME280;40070;47.322;18.784;2023-08-31T08:47:29;999.08;;;23.37;50.08
48810;BME280;40070;47.322;18.784;2023-08-31T08:49:31;999.14;;;23.46;50.38
48810;BME280;40070;47.322;18.784;2023-08-31T08:51:32;999.16;;;23.25;50.75
48810;BME280;40070;47.322;18.784;2023-08-31T08:53:33;999.17;;;23.21;51.67
48810;BME280;40070;47.322;18.784;2023-08-31T08:55:34;999.24;;;23.48;52.14
48810;BME280;40070;47.322;18.784;2023-08-31T08:57:35;999.27;;;23.35;51.88
48810;BME280;40070;47.322;18.784;2023-08-31T08:59:36;999.35;;;23.09;51.33
48810;BME280;40070;47.322;18.784;2023-08-31T09:01:38;999.32;;;23.06;50.42
48810;BME280;40070;47.322;18.784;2023-08-31T09:03:39;999.30;;;23.34;50.08
48810;BME280;40070;47.322;18.784;2023-08-31T09:05:40;999.37;;;22.96;49.59
48810;BME280;40070;47.322;18.784;2023-08-31T09:08:00;999.36;;;23.08;49.82
48810;BME280;40070;47.322;18.784;2023-08-31T09:10:01;999.44;;;22.92;50.70
48810;BME280;40070;47.322;18.784;2023-08-31T09:12:08;999.44;;;22.97;50.72
48810;BME280;40070;47.322;18.784;2023-08-31T09:14:19;999.45;;;22.76;51.56
48810;BME280;40070;47.322;18.784;2023-08-31T09:16:24;999.50;;;22.82;51.48
48810;BME280;40070;47.322;18.784;2023-08-31T09:18:26;999.49;;;22.79;52.88
48810;BME280;40070;47.322;18.784;2023-08-31T09:20:27;999.53;;;22.81;51.86
48810;BME280;40070;47.322;18.784;2023-08-31T09:22:28;999.53;;;22.79;51.87
48810;BME280;40070;47.322;18.784;2023-08-31T09:24:39;999.56;;;22.74;52.21
48810;BME280;40070;47.322;18.784;2023-08-31T09:26:43;999.55;;;22.65;51.91
48810;BME280;40070;47.322;18.784;2023-08-31T09:28:44;999.54;;;23.01;51.85
48810;BME280;40070;47.322;18.784;2023-08-31T09:30:49;999.54;;;23.24;50.43
48810;BME280;40070;47.322;18.784;2023-08-31T09:32:53;999.59;;;23.10;51.68
48810;BME280;40070;47.322;18.784;2023-08-31T09:34:54;999.57;;;23.01;50.94
48810;BME280;40070;47.322;18.784;2023-08-31T09:36:55;999.48;;;23.16;49.83
48810;BME280;40070;47.322;18.784;2023-08-31T09:38:56;999.52;;;23.56;51.49
48810;BME280;40070;47.322;18.784;2023-08-31T09:41:06;999.53;;;23.48;50.49
48810;BME280;40070;47.322;18.784;2023-08-31T09:43:07;999.57;;;23.63;48.48
48810;BME280;40070;47.322;18.784;2023-08-31T09:45:08;999.60;;;23.68;47.92
48810;BME280;40070;47.322;18.784;2023-08-31T09:47:09;999.61;;;23.78;49.60
48810;BME280;40070;47.322;18.784;2023-08-31T09:49:14;999.56;;;23.72;47.37
48810;BME280;40070;47.322;18.784;2023-08-31T09:51:15;999.61;;;23.92;48.62
48810;BME280;40070;47.322;18.784;2023-08-31T09:53:16;999.59;;;23.79;46.00
48810;BME280;40070;47.322;18.784;2023-08-31T09:55:17;999.64;;;23.82;47.62
48810;BME280;40070;47.322;18.784;2023-08-31T09:57:20;999.62;;;23.89;46.95
48810;BME280;40070;47.322;18.784;2023-08-31T09:59:21;999.60;;;24.10;47.99
48810;BME280;40070;47.322;18.784;2023-08-31T10:01:22;999.63;;;24.02;48.33
48810;BME280;40070;47.322;18.784;2023-08-31T10:03:23;999.62;;;23.88;48.22
48810;BME280;40070;47.322;18.784;2023-08-31T10:05:26;999.64;;;23.86;47.98
48810;BME280;40070;47.322;18.784;2023-08-31T10:07:27;999.63;;;24.04;48.28
48810;BME280;40070;47.322;18.784;2023-08-31T10:09:28;999.66;;;23.90;47.47
48810;BME280;40070;47.322;18.784;2023-08-31T10:11:30;999.72;;;23.70;47.68
48810;BME280;40070;47.322;18.784;2023-08-31T10:13:32;999.71;;;23.63;47.48
48810;BME280;40070;47.322;18.784;2023-08-31T10:15:34;999.75;;;23.77;48.00
48810;BME280;40070;47.322;18.784;2023-08-31T10:17:36;999.72;;;23.98;47.77
48810;BME280;40070;47.322;18.784;2023-08-31T10:19:37;999.77;;;23.72;47.58
48810;BME280;40070;47.322;18.784;2023-08-31T10:21:40;999.74;;;23.85;48.13
48810;BME280;40070;47.322;18.784;2023-08-31T10:23:44;999.77;;;23.77;47.35
48810;BME280;40070;47.322;18.784;2023-08-31T10:27:59;999.74;;;23.92;47.31
48810;BME280;40070;47.322;18.784;2023-08-31T10:30:12;999.78;;;24.06;47.44
48810;BME280;40070;47.322;18.784;2023-08-31T10:32:19;999.84;;;23.91;46.81
48810;BME280;40070;47.322;18.784;2023-08-31T10:34:33;999.88;;;23.95;47.13
48810;BME280;40070;47.322;18.784;2023-08-31T10:36:40;999.92;;;23.74;47.43
48810;BME280;40070;47.322;18.784;2023-08-31T10:38:45;1000.00;;;23.56;46.63
48810;BME280;40070;47.322;18.784;2023-08-31T10:41:18;999.98;;;23.58;46.74
48810;BME280;40070;47.322;18.784;2023-08-31T10:43:23;999.93;;;23.85;46.08
48810;BME280;40070;47.322;18.784;2023-08-31T10:45:19;999.93;;;23.76;46.02
48810;BME280;40070;47.322;18.784;2023-08-31T10:47:20;1000.01;;;23.90;48.05
48810;BME280;40070;47.322;18.784;2023-08-31T10:49:33;999.98;;;23.75;47.32
48810;BME280;40070;47.322;18.784;2023-08-31T10:51:34;1000.09;;;23.44;47.62
48810;BME280;40070;47.322;18.784;2023-08-31T10:53:36;1000.06;;;23.52;47.52
48810;BME280;40070;47.322;18.784;2023-08-31T10:55:49;1000.10;;;23.41;48.45
48810;BME280;40070;47.322;18.784;2023-08-31T10:57:50;1000.09;;;23.64;49.19
48810;BME280;40070;47.322;18.784;2023-08-31T10:59:52;1000.06;;;23.83;48.08
48810;BME280;40070;47.322;18.784;2023-08-31T11:02:02;1000.03;;;23.91;47.87